Time;durP1;ratioP1;P1;durP2;ratioP2;P2;SDS_P1;SDS_P2;PMS_P1;PMS_P2;Temp;Humidity;BMP_temperature;BMP_pressure;BME280_temperature;BME280_humidity;BME280_pressure;Samples;Min_cycle;Max_cycle;Signal;HPM_P1;HPM_P2
2021/12/06 00:01:31;;;;;;;6.25;4.93;;;;;;;8.46;50.21;94458.09;5032134;28;20021;-81
2021/12/06 00:04:06;;;;;;;7.72;5.00;;;;;;;8.56;49.87;94453.31;5033514;28;20370;-81
2021/12/06 00:06:34;;;;;;;8.80;4.90;;;;;;;8.60;49.99;94453.47;5033556;28;20025;-81
2021/12/06 00:09:03;;;;;;;7.70;4.45;;;;;;;8.55;50.05;94443.00;5032936;28;20025;-82
2021/12/06 00:11:29;;;;;;;6.35;4.40;;;;;;;8.52;50.09;94447.03;5032087;28;20561;-82
2021/12/06 00:13:54;;;;;;;7.60;4.82;;;;;;;8.53;49.65;94435.34;5044715;28;20115;-82
2021/12/06 00:16:22;;;;;;;4.78;4.13;;;;;;;8.67;49.83;94459.09;5052014;28;20057;-81
2021/12/06 00:18:50;;;;;;;6.15;4.38;;;;;;;8.69;49.79;94458.78;5053040;28;20044;-81
2021/12/06 00:21:16;;;;;;;5.07;4.30;;;;;;;8.70;49.35;94458.50;5052790;28;20093;-81
2021/12/06 00:24:03;;;;;;;7.97;5.07;;;;;;;8.80;49.58;94471.47;5052729;28;20542;-83
2021/12/06 00:26:28;;;;;;;6.93;4.18;;;;;;;8.90;49.70;94469.59;5031101;28;20029;-83
2021/12/06 00:28:57;;;;;;;4.32;3.92;;;;;;;8.92;49.34;94454.16;5032509;28;20082;-82
2021/12/06 00:31:30;;;;;;;8.23;4.35;;;;;;;9.00;49.25;94464.78;5032755;28;20021;-82
2021/12/06 00:34:00;;;;;;;5.13;4.00;;;;;;;9.09;48.91;94472.75;5032711;28;20025;-84
2021/12/06 00:36:30;;;;;;;5.07;4.03;;;;;;;9.01;48.81;94476.19;5032876;28;20018;-82
2021/12/06 00:38:56;;;;;;;5.10;4.60;;;;;;;8.97;49.06;94469.94;5032766;28;20026;-83
2021/12/06 00:41:22;;;;;;;6.03;4.68;;;;;;;8.99;48.74;94467.75;5032024;28;20387;-84
2021/12/06 00:43:47;;;;;;;6.97;4.43;;;;;;;8.81;48.76;94480.19;5032783;28;20025;-81
2021/12/06 00:46:13;;;;;;;4.18;3.67;;;;;;;7.49;51.66;94479.03;5032648;28;20017;-83
2021/12/06 00:48:38;;;;;;;4.65;3.85;;;;;;;6.96;53.17;94488.38;5031593;28;20017;-83
2021/12/06 00:51:04;;;;;;;8.73;4.10;;;;;;;8.21;51.63;94493.97;5032382;28;20056;-83
2021/12/06 00:53:30;;;;;;;5.38;3.83;;;;;;;8.42;50.82;94488.94;5032530;28;20045;-84
2021/12/06 00:55:56;;;;;;;6.75;3.88;;;;;;;8.55;49.88;94496.81;5030799;28;20099;-83
2021/12/06 00:58:22;;;;;;;5.20;4.03;;;;;;;8.69;49.72;94480.78;5031091;28;20018;-84
2021/12/06 01:00:50;;;;;;;5.75;4.38;;;;;;;8.99;49.48;94488.97;5032411;28;20032;-83
2021/12/06 01:03:22;;;;;;;5.20;4.38;;;;;;;9.16;49.12;94490.84;5032525;28;20112;-82
2021/12/06 01:05:48;;;;;;;7.80;4.72;;;;;;;9.27;48.84;94492.16;5032748;28;20056;-81
2021/12/06 01:08:15;;;;;;;6.55;4.40;;;;;;;9.40;48.35;94493.84;5032604;28;20029;-81
2021/12/06 01:10:41;;;;;;;6.57;4.80;;;;;;;9.46;47.97;94502.44;5031657;28;20037;-81
2021/12/06 01:13:07;;;;;;;7.22;4.30;;;;;;;9.53;48.20;94498.25;5031257;28;20032;-84
2021/12/06 01:15:34;;;;;;;5.95;4.38;;;;;;;9.47;47.85;94498.69;5031336;28;20113;-83
2021/12/06 01:18:01;;;;;;;6.53;4.18;;;;;;;9.58;47.73;94507.94;5031538;28;20025;-83
2021/12/06 01:20:31;;;;;;;6.05;4.35;;;;;;;9.56;47.84;94502.13;5031796;28;20112;-83
2021/12/06 01:23:07;;;;;;;8.60;4.60;;;;;;;8.86;48.33;94525.16;5033708;28;20034;-83
2021/12/06 01:30:54;;;;;;;6.95;4.03;;;;;;;8.75;49.27;94539.75;5035025;28;20029;-83
2021/12/06 01:41:30;;;;;;;8.35;6.10;;;;;;;5.95;57.78;94551.81;5035497;28;20045;-83
2021/12/06 01:44:17;;;;;;;8.68;6.90;;;;;;;5.92;58.28;94557.66;5034867;28;20021;-82
2021/12/06 01:46:49;;;;;;;10.95;8.68;;;;;;;5.49;60.65;94565.66;5035901;28;20033;-81
2021/12/06 01:49:16;;;;;;;14.70;10.48;;;;;;;6.67;57.80;94546.84;5035533;28;20741;-83
2021/12/06 01:51:43;;;;;;;15.48;11.73;;;;;;;5.57;60.26;94564.22;5035746;28;20034;-80
2021/12/06 01:54:11;;;;;;;19.98;13.70;;;;;;;6.34;57.93;94561.19;5035810;28;20026;-81
2021/12/06 01:56:36;;;;;;;15.02;11.45;;;;;;;5.95;59.56;94572.91;5031514;28;20097;-81
2021/12/06 01:59:02;;;;;;;21.13;15.20;;;;;;;6.35;58.21;94576.75;5034250;28;20120;-80
2021/12/06 02:01:28;;;;;;;63.05;20.42;;;;;;;5.83;59.43;94575.94;5034451;28;20410;-82
2021/12/06 02:03:54;;;;;;;35.65;18.73;;;;;;;5.70;60.51;94566.13;5034249;28;20029;-81
2021/12/06 02:06:19;;;;;;;32.58;18.77;;;;;;;6.25;58.60;94567.16;5035314;28;20479;-80
2021/12/06 02:08:45;;;;;;;28.65;18.90;;;;;;;6.89;56.76;94569.16;5035402;28;20040;-81
2021/12/06 02:11:11;;;;;;;52.53;24.73;;;;;;;7.04;56.70;94551.13;5028036;28;20104;-81
2021/12/06 02:13:53;;;;;;;41.00;23.85;;;;;;;7.98;55.49;94568.13;5041851;28;20052;-81
2021/12/06 02:16:22;;;;;;;33.30;22.40;;;;;;;7.06;55.99;94569.34;5055295;28;20356;-83
2021/12/06 02:18:54;;;;;;;48.00;23.83;;;;;;;6.61;56.93;94573.66;5055059;28;20032;-81
2021/12/06 02:21:31;;;;;;;40.70;24.60;;;;;;;6.93;57.41;94568.28;5054952;28;20055;-81
2021/12/06 02:23:59;;;;;;;38.88;24.05;;;;;;;7.25;56.66;94566.59;5055316;28;20029;-82
2021/12/06 02:26:25;;;;;;;39.15;21.88;;;;;;;7.54;54.53;94568.88;5044451;28;20092;-82
2021/12/06 02:28:52;;;;;;;39.45;23.38;;;;;;;7.56;55.01;94554.25;5035028;28;20606;-81
2021/12/06 02:31:20;;;;;;;39.50;25.17;;;;;;;8.13;54.16;94577.59;5034753;28;20017;-81
2021/12/06 02:33:48;;;;;;;43.20;26.40;;;;;;;8.54;52.71;94581.91;5034949;28;20117;-81
2021/12/06 02:36:15;;;;;;;36.90;22.00;;;;;;;8.66;51.33;94574.19;5033834;28;20122;-81
2021/12/06 02:38:41;;;;;;;41.60;25.75;;;;;;;8.71;51.93;94584.66;5033603;28;20026;-81
2021/12/06 02:41:08;;;;;;;31.20;21.13;;;;;;;8.61;51.07;94584.94;5032959;28;20064;-81
2021/12/06 02:43:34;;;;;;;29.52;20.95;;;;;;;8.15;52.42;94582.59;5033554;28;20022;-81
2021/12/06 02:45:59;;;;;;;29.08;21.45;;;;;;;8.54;51.96;94584.56;5034770;28;20022;-81
2021/12/06 02:48:25;;;;;;;29.63;21.00;;;;;;;8.50;51.29;94578.34;5034665;28;20112;-81
2021/12/06 02:50:56;;;;;;;32.40;21.00;;;;;;;7.14;54.92;94589.81;5033244;28;20029;-81
2021/12/06 02:53:24;;;;;;;30.85;20.83;;;;;;;8.47;53.20;94587.66;5033198;28;20175;-81
2021/12/06 02:55:53;;;;;;;28.33;19.75;;;;;;;7.97;53.28;94584.34;5034153;28;20033;-81
2021/12/06 02:58:55;;;;;;;32.20;20.23;;;;;;;8.92;51.94;94581.47;5034369;28;20136;-81
2021/12/06 03:01:23;;;;;;;34.47;22.35;;;;;;;9.41;50.90;94595.50;5034240;28;20045;-81
2021/12/06 03:03:48;;;;;;;29.80;19.98;;;;;;;9.60;50.21;94580.84;5034559;28;20025;-81
2021/12/06 03:06:14;;;;;;;33.85;20.58;;;;;;;9.79;49.74;94580.56;5034459;28;20021;-81
2021/12/06 03:08:41;;;;;;;28.60;20.13;;;;;;;9.98;49.39;94596.22;5032458;28;20459;-81
2021/12/06 03:11:12;;;;;;;29.88;19.58;;;;;;;10.04;49.21;94597.59;5028047;28;20085;-81
2021/12/06 03:13:39;;;;;;;25.35;18.85;;;;;;;10.16;48.55;94597.75;5032648;28;20717;-80
2021/12/06 03:16:04;;;;;;;25.10;18.75;;;;;;;9.82;47.94;94601.19;5045139;28;20036;-81
2021/12/06 03:18:30;;;;;;;23.45;18.23;;;;;;;7.67;52.83;94601.69;5034237;28;20022;-82
2021/12/06 03:20:56;;;;;;;21.13;18.75;;;;;;;8.31;52.81;94612.94;5033934;28;20036;-81
2021/12/06 03:23:22;;;;;;;24.55;19.13;;;;;;;8.67;51.49;94609.44;5032876;28;20022;-81
2021/12/06 03:25:47;;;;;;;25.60;20.00;;;;;;;8.37;52.08;94619.72;5032269;28;20053;-81
2021/12/06 03:28:13;;;;;;;27.60;21.17;;;;;;;9.12;51.25;94612.75;5027833;28;20022;-81
2021/12/06 03:30:38;;;;;;;28.77;20.52;;;;;;;8.92;50.79;94608.00;5033815;28;20060;-81
2021/12/06 03:33:04;;;;;;;29.00;21.05;;;;;;;9.09;50.09;94606.19;5033748;28;20057;-81
2021/12/06 03:35:29;;;;;;;29.88;21.02;;;;;;;9.29;50.13;94606.72;5034178;28;20025;-80
2021/12/06 03:37:55;;;;;;;31.52;20.88;;;;;;;8.72;50.64;94615.41;5032842;28;20029;-81
2021/12/06 03:40:20;;;;;;;29.73;20.02;;;;;;;8.64;51.05;94621.41;5032342;28;20021;-81
2021/12/06 03:42:46;;;;;;;29.38;19.83;;;;;;;8.65;50.80;94620.34;5031447;28;20112;-81
2021/12/06 03:45:13;;;;;;;33.97;21.48;;;;;;;7.73;53.51;94625.13;5046551;28;20052;-81
2021/12/06 03:47:39;;;;;;;29.50;20.15;;;;;;;7.75;54.55;94632.75;5052498;28;20029;-80
2021/12/06 03:50:07;;;;;;;34.22;21.88;;;;;;;8.53;52.73;94642.09;5053175;28;20029;-80
2021/12/06 03:52:33;;;;;;;35.65;23.42;;;;;;;8.99;51.82;94632.97;5052980;28;20075;-81
2021/12/06 03:54:59;;;;;;;31.75;22.00;;;;;;;8.29;51.98;94629.16;5052069;28;20036;-80
2021/12/06 03:57:25;;;;;;;33.17;22.15;;;;;;;8.53;51.69;94650.06;5038868;28;20021;-81
2021/12/06 03:59:52;;;;;;;32.33;21.85;;;;;;;7.49;54.65;94651.81;5044052;28;20026;-80
2021/12/06 04:02:21;;;;;;;34.95;21.08;;;;;;;6.58;57.25;94641.06;5033865;28;20065;-81
2021/12/06 04:04:46;;;;;;;32.97;21.48;;;;;;;6.67;57.54;94649.91;5033441;28;20051;-81
2021/12/06 04:07:12;;;;;;;30.92;20.33;;;;;;;5.83;59.52;94643.78;5032083;28;20108;-80
2021/12/06 04:09:38;;;;;;;29.13;19.77;;;;;;;5.78;61.06;94662.34;5033110;28;20530;-80
2021/12/06 04:12:06;;;;;;;38.92;22.20;;;;;;;6.66;59.31;94661.56;5031042;28;20037;-80
2021/12/06 04:14:32;;;;;;;44.25;22.52;;;;;;;6.95;57.09;94645.44;5032974;28;20463;-81
2021/12/06 04:16:57;;;;;;;37.58;21.90;;;;;;;6.62;58.05;94673.78;5032953;28;20026;-80
2021/12/06 04:19:23;;;;;;;34.63;21.92;;;;;;;7.28;56.36;94659.38;5032716;28;20112;-81
2021/12/06 04:21:49;;;;;;;39.88;22.67;;;;;;;6.50;57.87;94653.09;5032890;28;20025;-80
2021/12/06 04:24:15;;;;;;;43.45;24.85;;;;;;;6.27;59.47;94661.94;5032866;28;20079;-79
2021/12/06 04:26:41;;;;;;;46.95;24.50;;;;;;;7.02;56.41;94674.94;5032205;28;20026;-79
2021/12/06 04:29:07;;;;;;;47.50;24.92;;;;;;;6.60;57.79;94677.78;5044568;28;20020;-77
2021/12/06 04:31:40;;;;;;;45.17;24.75;;;;;;;6.14;59.90;94681.13;5038184;28;20107;-74
2021/12/06 04:34:05;;;;;;;47.85;25.88;;;;;;;7.18;57.15;94670.16;5030613;28;20120;-74
2021/12/06 04:36:30;;;;;;;52.85;25.98;;;;;;;6.73;57.08;94672.53;5032084;28;20079;-80
2021/12/06 04:38:56;;;;;;;56.45;26.52;;;;;;;6.96;58.25;94680.59;5032103;28;20038;-78
2021/12/06 04:41:21;;;;;;;49.35;26.40;;;;;;;7.23;56.72;94663.97;5028480;28;20109;-78
2021/12/06 04:43:47;;;;;;;143.77;46.88;;;;;;;8.00;56.05;94681.75;5030327;28;20381;-81
2021/12/06 04:46:13;;;;;;;186.60;51.83;;;;;;;8.42;56.05;94672.59;5032679;28;20593;-81
2021/12/06 04:48:39;;;;;;;194.02;53.00;;;;;;;8.68;55.50;94683.38;5031498;28;20025;-82
2021/12/06 04:51:06;;;;;;;128.75;40.83;;;;;;;6.46;58.31;94690.97;5032135;28;20032;-82
2021/12/06 04:53:36;;;;;;;124.30;41.50;;;;;;;6.15;60.26;94693.28;5032330;28;20025;-80
2021/12/06 04:56:23;;;;;;;133.82;44.20;;;;;;;6.97;59.17;94700.69;5031367;28;20029;-82
2021/12/06 04:58:58;;;;;;;124.15;41.30;;;;;;;6.44;59.14;94704.44;5032392;28;20029;-82
2021/12/06 05:01:28;;;;;;;112.97;37.90;;;;;;;6.10;60.56;94717.91;5032426;28;20025;-82
2021/12/06 05:03:58;;;;;;;115.18;38.58;;;;;;;6.46;59.80;94704.94;5032642;28;20399;-80
2021/12/06 05:06:27;;;;;;;121.43;41.30;;;;;;;7.27;58.49;94708.06;5033120;28;20026;-81
2021/12/06 05:08:56;;;;;;;114.80;38.63;;;;;;;6.83;57.52;94705.94;5032523;28;20025;-81
2021/12/06 05:11:25;;;;;;;126.75;41.45;;;;;;;7.21;58.15;94726.97;5030698;28;20025;-80
2021/12/06 05:13:52;;;;;;;122.93;39.28;;;;;;;6.86;57.86;94721.22;5033796;28;20041;-80
2021/12/06 05:16:18;;;;;;;110.70;35.85;;;;;;;6.31;59.29;94728.19;5033580;28;20491;-80
2021/12/06 05:18:45;;;;;;;117.85;37.70;;;;;;;6.32;58.97;94725.25;5033289;28;20494;-81
2021/12/06 05:21:10;;;;;;;137.13;40.53;;;;;;;6.67;59.16;94737.13;5032324;28;20036;-80
2021/12/06 05:23:36;;;;;;;108.85;35.28;;;;;;;5.71;61.10;94726.81;5033446;28;20025;-80
2021/12/06 05:26:01;;;;;;;115.25;37.50;;;;;;;6.28;60.21;94739.31;5034019;28;20021;-80
2021/12/06 05:28:31;;;;;;;116.90;36.33;;;;;;;5.73;61.74;94747.63;5037889;28;20021;-81
2021/12/06 05:31:15;;;;;;;108.38;35.67;;;;;;;6.36;60.28;94741.31;5052461;28;20032;-79
2021/12/06 05:33:47;;;;;;;133.75;41.05;;;;;;;7.00;58.33;94734.47;5051203;28;20097;-80
2021/12/06 05:36:14;;;;;;;140.40;40.92;;;;;;;7.24;58.23;94732.47;5052218;28;20021;-80
2021/12/06 05:38:40;;;;;;;142.82;41.70;;;;;;;7.61;56.84;94736.00;5051617;28;20052;-80
2021/12/06 05:41:06;;;;;;;135.18;40.72;;;;;;;8.08;56.15;94742.72;5052244;28;20029;-80
2021/12/06 05:43:32;;;;;;;143.68;42.90;;;;;;;8.41;56.34;94733.84;5031739;28;20017;-81
2021/12/06 05:45:58;;;;;;;126.85;38.85;;;;;;;7.62;55.87;94750.81;5044988;28;20029;-81
2021/12/06 05:48:23;;;;;;;131.25;39.08;;;;;;;7.19;57.22;94753.72;5032979;28;20032;-81
2021/12/06 05:50:49;;;;;;;118.10;36.65;;;;;;;5.94;59.83;94771.97;5031868;28;20118;-81
2021/12/06 05:53:16;;;;;;;107.82;34.97;;;;;;;6.27;59.28;94762.28;5031666;28;20408;-80
2021/12/06 05:55:42;;;;;;;109.90;35.00;;;;;;;5.53;62.37;94779.53;5030987;28;20033;-82
2021/12/06 05:58:09;;;;;;;105.72;35.67;;;;;;;5.71;61.76;94779.59;5035130;28;20660;-83
2021/12/06 06:00:35;;;;;;;95.97;33.25;;;;;;;5.52;61.97;94791.94;5035296;28;20211;-82
2021/12/06 06:03:04;;;;;;;74.20;31.23;;;;;;;5.33;63.06;94793.72;5031249;28;20061;-82
2021/12/06 06:05:30;;;;;;;83.15;32.47;;;;;;;5.99;61.95;94790.41;5032254;28;20043;-82
2021/12/06 06:07:56;;;;;;;78.20;32.90;;;;;;;7.13;58.96;94783.19;5035717;28;20026;-82
2021/12/06 06:10:22;;;;;;;93.75;34.00;;;;;;;6.37;58.57;94783.28;5033253;28;20038;-72
2021/12/06 06:12:47;;;;;;;84.85;32.00;;;;;;;6.70;59.04;94804.47;5034288;28;20045;-69
2021/12/06 06:15:13;;;;;;;80.65;33.55;;;;;;;7.15;58.93;94800.31;5033041;28;20082;-67
2021/12/06 06:17:42;;;;;;;58.85;27.67;;;;;;;5.99;59.61;94807.03;5033058;28;20099;-76
2021/12/06 06:20:25;;;;;;;59.28;28.27;;;;;;;6.25;59.82;94817.25;5035112;28;20112;-77
2021/12/06 06:22:50;;;;;;;;;;;;;;;6.02;59.94;94826.00;5034574;28;20025;-76
2021/12/06 06:25:16;;;;;;;52.88;26.35;;;;;;;5.66;61.39;94813.16;5033544;28;19924;-71
2021/12/06 06:27:42;;;;;;;62.08;28.42;;;;;;;5.77;61.47;94827.81;5034048;28;20033;-70
2021/12/06 06:30:09;;;;;;;72.50;31.30;;;;;;;6.83;58.96;94832.06;5053591;28;20029;-76
2021/12/06 06:32:34;;;;;;;75.68;31.60;;;;;;;6.86;58.04;94831.47;5052127;28;20646;-69
2021/12/06 06:35:00;;;;;;;58.38;27.60;;;;;;;5.90;60.67;94848.28;5052732;28;20029;-69
2021/12/06 06:37:25;;;;;;;60.42;29.73;;;;;;;6.23;59.61;94833.38;5050994;28;20029;-69
2021/12/06 06:39:51;;;;;;;61.13;30.45;;;;;;;6.19;59.82;94842.97;5051300;28;20134;-68
2021/12/06 06:42:17;;;;;;;65.93;29.13;;;;;;;6.43;59.00;94847.41;5044178;28;20031;-70
2021/12/06 06:44:43;;;;;;;64.03;29.33;;;;;;;6.88;58.30;94837.25;5044023;28;20061;-70
2021/12/06 06:47:08;;;;;;;62.13;29.30;;;;;;;6.19;59.64;94847.44;5030173;28;20131;-70
2021/12/06 06:49:34;;;;;;;60.20;27.73;;;;;;;6.09;60.07;94856.28;5031608;28;20021;-71
2021/12/06 06:52:00;;;;;;;71.20;32.05;;;;;;;7.48;57.45;94846.09;5031766;28;20035;-68
2021/12/06 06:54:26;;;;;;;63.90;29.15;;;;;;;6.32;58.71;94862.59;5030442;28;20029;-70
2021/12/06 06:56:51;;;;;;;66.65;29.55;;;;;;;6.44;59.14;94870.88;5028734;28;20030;-71
2021/12/06 06:59:17;;;;;;;64.43;29.02;;;;;;;6.11;60.54;94861.28;5034427;28;20025;-75
2021/12/06 07:01:45;;;;;;;60.92;28.60;;;;;;;5.51;61.84;94837.84;5035775;28;20072;-69
2021/12/06 07:04:11;;;;;;;68.50;29.40;;;;;;;6.06;60.33;94877.97;5031628;28;20025;-74
2021/12/06 07:06:37;;;;;;;74.65;31.77;;;;;;;6.64;58.32;94843.41;5032356;28;20487;-80
2021/12/06 07:09:02;;;;;;;67.57;29.98;;;;;;;7.15;58.16;94869.09;5031698;28;20060;-84
2021/12/06 07:11:28;;;;;;;65.95;31.90;;;;;;;7.68;56.76;94882.00;5030706;28;20030;-74
2021/12/06 07:13:54;;;;;;;72.30;30.85;;;;;;;7.05;56.96;94874.53;5029988;28;20026;-69
2021/12/06 07:16:20;;;;;;;59.85;29.13;;;;;;;7.54;55.45;94889.91;5033230;28;20025;-76
2021/12/06 07:18:46;;;;;;;56.42;28.27;;;;;;;6.54;58.28;94885.81;5028434;28;20463;-77
2021/12/06 07:21:12;;;;;;;53.13;28.02;;;;;;;6.72;58.77;94893.00;5031681;28;20042;-76
2021/12/06 07:23:39;;;;;;;64.95;28.92;;;;;;;6.42;59.05;94903.94;5031091;28;20037;-72
2021/12/06 07:26:10;;;;;;;57.95;27.25;;;;;;;6.40;59.68;94906.09;5030536;28;20026;-74
2021/12/06 07:28:36;;;;;;;62.30;29.73;;;;;;;7.36;56.92;94893.38;5030642;28;20021;-74
2021/12/06 07:31:05;;;;;;;58.08;30.33;;;;;;;7.43;56.42;94907.03;5041066;28;20022;-77
2021/12/06 07:33:32;;;;;;;56.58;28.13;;;;;;;6.93;57.31;94900.66;5029067;28;20037;-72
2021/12/06 07:36:02;;;;;;;60.38;28.48;;;;;;;7.14;57.15;94915.13;5029241;28;20059;-73
2021/12/06 07:38:27;;;;;;;61.60;29.65;;;;;;;7.73;56.37;94918.22;5031484;28;20379;-74
2021/12/06 07:40:54;;;;;;;64.65;30.73;;;;;;;8.08;54.84;94919.41;5029736;28;20026;-74
2021/12/06 07:43:20;;;;;;;56.35;27.85;;;;;;;7.91;55.14;94921.84;5030198;28;20033;-76
2021/12/06 07:45:45;;;;;;;54.97;28.88;;;;;;;7.89;53.63;94916.06;5034805;28;20033;-76
2021/12/06 07:48:12;;;;;;;51.75;27.58;;;;;;;7.59;55.17;94926.09;5028868;28;20112;-71
2021/12/06 07:50:38;;;;;;;47.28;26.63;;;;;;;7.25;56.87;94936.94;5029261;28;20029;-71
2021/12/06 07:53:04;;;;;;;48.30;25.38;;;;;;;7.24;56.13;94925.56;5030190;28;20448;-75
2021/12/06 07:55:33;;;;;;;59.72;29.08;;;;;;;8.30;54.91;94934.66;4979084;28;1504705;-73
2021/12/06 07:57:59;;;;;;;53.22;29.13;;;;;;;8.42;53.83;94927.03;5034992;28;20021;-74
2021/12/06 08:00:26;;;;;;;49.58;26.33;;;;;;;8.53;52.71;94930.25;5051221;28;20070;-75
2021/12/06 08:02:52;;;;;;;51.28;27.08;;;;;;;8.10;53.43;94935.81;5050156;28;20179;-72
2021/12/06 08:05:31;;;;;;;48.20;25.35;;;;;;;7.77;54.29;94927.91;5049757;28;20044;-75
2021/12/06 08:07:58;;;;;;;49.47;26.60;;;;;;;8.10;54.52;94935.81;5050869;28;20032;-72
2021/12/06 08:10:24;;;;;;;53.13;27.95;;;;;;;8.76;53.37;94931.91;5050366;28;20033;-74
2021/12/06 08:12:49;;;;;;;44.05;25.10;;;;;;;8.79;52.40;94947.22;5035904;28;20044;-74
2021/12/06 08:15:15;;;;;;;42.05;23.55;;;;;;;8.15;53.07;94948.97;5034448;28;20025;-73
2021/12/06 08:17:40;;;;;;;34.60;21.83;;;;;;;7.56;54.89;94951.28;5030746;28;20399;-72
2021/12/06 08:20:07;;;;;;;35.85;21.52;;;;;;;8.06;53.74;94945.41;5030481;28;20028;-74
2021/12/06 08:22:33;;;;;;;39.63;22.27;;;;;;;7.08;56.66;94955.19;5030317;28;20033;-74
2021/12/06 08:24:59;;;;;;;33.95;21.45;;;;;;;7.05;57.49;94953.88;5030610;28;20115;-74
2021/12/06 08:27:24;;;;;;;40.58;21.02;;;;;;;6.56;58.32;94954.25;5025250;28;20651;-73
2021/12/06 08:29:50;;;;;;;32.53;20.48;;;;;;;7.47;55.27;94928.41;5032727;28;20025;-73
2021/12/06 08:32:15;;;;;;;40.97;20.02;;;;;;;7.92;54.81;94966.56;5029974;28;20029;-75
2021/12/06 08:34:41;;;;;;;38.28;22.17;;;;;;;8.77;53.46;94954.69;5030743;28;20552;-74
2021/12/06 08:37:10;;;;;;;32.58;19.63;;;;;;;8.37;51.77;94953.63;5029511;28;20021;-74
2021/12/06 08:39:37;;;;;;;39.17;21.58;;;;;;;8.28;52.78;94969.38;5029986;28;20029;-75
2021/12/06 08:42:03;;;;;;;33.08;20.27;;;;;;;7.50;54.20;94949.78;5028004;28;20022;-73
2021/12/06 08:44:28;;;;;;;30.45;19.63;;;;;;;7.36;54.43;94969.31;5036226;28;20433;-74
2021/12/06 08:46:54;;;;;;;37.30;20.85;;;;;;;7.05;56.51;94977.69;5033674;28;20029;-73
2021/12/06 08:49:19;;;;;;;38.92;22.80;;;;;;;7.74;55.45;94978.00;5027953;28;20026;-73
2021/12/06 08:51:48;;;;;;;36.17;21.60;;;;;;;7.34;55.55;94984.72;5029936;28;20036;-73
2021/12/06 08:54:19;;;;;;;36.80;21.88;;;;;;;7.92;54.73;94965.78;5030156;28;20668;-73
2021/12/06 08:56:46;;;;;;;36.10;20.55;;;;;;;8.56;52.20;94991.44;5030079;28;20034;-72
2021/12/06 08:59:13;;;;;;;32.10;20.30;;;;;;;7.59;54.96;94996.78;5032848;28;20021;-72
2021/12/06 09:01:39;;;;;;;35.05;21.27;;;;;;;7.76;54.15;94984.56;5029473;28;20435;-76
2021/12/06 09:04:08;;;;;;;33.00;20.80;;;;;;;8.37;53.24;95003.19;5029789;28;20022;-74
2021/12/06 09:06:35;;;;;;;35.58;20.75;;;;;;;6.92;57.44;95013.56;5029850;28;20026;-74
2021/12/06 09:09:03;;;;;;;37.15;21.58;;;;;;;7.29;56.09;95001.44;5027987;28;20051;-73
2021/12/06 09:11:29;;;;;;;39.47;20.58;;;;;;;6.59;57.43;95002.03;5029269;28;20546;-73
2021/12/06 09:13:54;;;;;;;38.55;21.40;;;;;;;8.44;53.41;94993.00;5032359;28;20021;-72
2021/12/06 09:16:20;;;;;;;33.47;20.63;;;;;;;7.36;54.82;95001.84;5029544;28;20075;-73
2021/12/06 09:18:45;;;;;;;31.33;19.10;;;;;;;7.44;54.38;94997.78;5029660;28;20038;-72
2021/12/06 09:21:17;;;;;;;31.55;18.63;;;;;;;6.51;57.40;95014.03;5029867;28;20036;-72
2021/12/06 09:23:43;;;;;;;30.38;17.85;;;;;;;6.39;57.77;95015.47;5028215;28;20368;-72
2021/12/06 09:26:09;;;;;;;30.33;17.85;;;;;;;6.32;59.23;95022.94;5029139;28;20041;-72
2021/12/06 09:28:35;;;;;;;31.02;19.17;;;;;;;6.98;57.52;95024.84;5028475;28;20026;-72
2021/12/06 09:31:03;;;;;;;29.95;19.30;;;;;;;7.72;55.12;95014.56;5032312;28;20071;-73
2021/12/06 09:33:30;;;;;;;33.30;18.35;;;;;;;6.89;56.83;95024.69;5028722;28;20068;-74
2021/12/06 09:35:58;;;;;;;34.85;19.73;;;;;;;7.72;55.40;95017.22;5029270;28;20047;-74
2021/12/06 09:38:33;;;;;;;29.02;18.63;;;;;;;8.76;52.93;95000.88;5029046;28;20017;-73
2021/12/06 09:40:59;;;;;;;28.60;18.30;;;;;;;8.42;51.70;95008.41;5030092;28;20071;-74
2021/12/06 09:43:25;;;;;;;26.20;17.17;;;;;;;8.42;51.70;95006.53;5032332;28;20140;-74
2021/12/06 09:45:51;;;;;;;27.65;17.13;;;;;;;9.14;49.56;94983.94;5036417;28;20112;-74
2021/12/06 09:48:17;;;;;;;26.27;17.08;;;;;;;8.18;51.98;95000.56;5031317;28;20064;-73
2021/12/06 09:50:49;;;;;;;31.77;18.92;;;;;;;8.63;52.27;94996.34;5031054;28;20030;-73
2021/12/06 09:53:19;;;;;;;35.22;20.10;;;;;;;9.05;51.49;95010.38;5032326;28;20104;-73
2021/12/06 09:55:47;;;;;;;31.92;19.42;;;;;;;9.56;49.50;94998.66;5032663;28;20056;-73
2021/12/06 09:58:13;;;;;;;27.90;18.58;;;;;;;9.93;49.03;95004.69;5031948;28;20422;-72
2021/12/06 10:00:43;;;;;;;26.60;16.60;;;;;;;7.42;53.82;95007.84;5035890;28;20029;-72
2021/12/06 10:03:11;;;;;;;27.85;18.38;;;;;;;7.76;53.96;95011.06;5032199;28;20029;-72
2021/12/06 10:05:36;;;;;;;34.45;17.02;;;;;;;6.24;58.69;94997.91;5032406;28;20029;-74
2021/12/06 10:08:03;;;;;;;29.77;19.58;;;;;;;7.73;55.72;95014.31;5032769;28;20029;-73
2021/12/06 10:10:30;;;;;;;26.70;17.65;;;;;;;8.56;52.05;94993.31;5031567;28;20032;-73
2021/12/06 10:12:57;;;;;;;24.90;17.27;;;;;;;6.94;55.89;95014.06;5031422;28;20039;-70
2021/12/06 10:15:28;;;;;;;24.00;16.33;;;;;;;7.37;55.33;95002.63;5043239;28;20021;-72
2021/12/06 10:17:57;;;;;;;22.20;15.57;;;;;;;6.40;57.04;94995.94;5033033;28;20032;-74
2021/12/06 10:20:24;;;;;;;24.90;16.58;;;;;;;6.96;57.60;95009.28;5032656;28;20098;-68
2021/12/06 10:22:51;;;;;;;26.15;17.23;;;;;;;8.29;53.96;95000.13;5033649;28;20723;-78
2021/12/06 10:25:17;;;;;;;26.77;17.65;;;;;;;8.95;51.77;94981.38;5034068;28;20030;-81
2021/12/06 10:28:00;;;;;;;17.13;12.93;;;;;;;6.58;56.97;94997.03;5032017;28;20033;-73
2021/12/06 10:30:26;;;;;;;25.27;16.10;;;;;;;7.04;56.47;94994.63;5036309;28;20036;-85
2021/12/06 10:33:08;;;;;;;19.52;15.98;;;;;;;7.31;55.61;94986.06;5052648;28;20028;-73
2021/12/06 10:35:34;;;;;;;21.45;15.15;;;;;;;7.87;54.31;94985.19;5013807;28;20561;-72
2021/12/06 10:37:59;;;;;;;22.83;16.13;;;;;;;7.37;55.46;94997.34;5014126;28;20109;-82
2021/12/06 10:40:29;;;;;;;23.00;16.77;;;;;;;7.70;54.90;94983.09;5013520;28;20105;-76
2021/12/06 10:42:57;;;;;;;20.23;14.93;;;;;;;6.61;56.92;94993.84;5015758;28;20479;-75
2021/12/06 10:45:32;;;;;;;20.02;14.35;;;;;;;6.20;59.13;95002.19;5034921;28;20064;-74
2021/12/06 10:48:15;;;;;;;21.65;16.50;;;;;;;6.73;57.67;95005.59;5034231;28;20026;-71
2021/12/06 10:50:46;;;;;;;32.42;16.77;;;;;;;6.35;60.28;95004.69;5031263;28;20022;-72
2021/12/06 10:53:14;;;;;;;35.38;19.70;;;;;;;7.52;57.51;95010.34;5029188;28;20052;-70
2021/12/06 10:55:42;;;;;;;22.08;16.88;;;;;;;7.60;55.94;95014.22;5030266;28;20029;-72
2021/12/06 10:58:13;;;;;;;24.50;17.10;;;;;;;8.25;52.95;95001.78;5031188;28;20033;-75
2021/12/06 11:00:49;;;;;;;22.90;17.17;;;;;;;8.33;53.24;95001.09;5034835;28;20033;-73
2021/12/06 11:03:28;;;;;;;24.35;17.90;;;;;;;8.70;52.32;95007.38;5029478;28;20064;-74
2021/12/06 11:06:20;;;;;;;22.10;15.52;;;;;;;6.85;57.62;95013.09;5030367;28;20113;-75
2021/12/06 11:08:50;;;;;;;24.13;15.38;;;;;;;6.78;57.00;95012.66;5031527;28;20026;-73
2021/12/06 11:11:20;;;;;;;28.17;17.40;;;;;;;7.43;56.83;95012.09;5030020;28;20107;-76
2021/12/06 11:13:52;;;;;;;23.80;15.80;;;;;;;8.00;53.16;95005.66;5032753;28;20109;-76
2021/12/06 11:16:17;;;;;;;;;;;;;;;9.45;51.11;95006.06;5032053;28;20230;-82
2021/12/06 11:18:47;;;;;;;28.02;17.77;;;;;;;8.43;53.08;95012.63;5031234;28;20561;-68
2021/12/06 11:21:18;;;;;;;24.52;18.27;;;;;;;7.78;54.08;95010.78;5030835;28;20515;-68
2021/12/06 11:23:58;;;;;;;20.77;16.15;;;;;;;7.46;55.41;95016.81;5030963;28;20025;-66
2021/12/06 11:26:23;;;;;;;24.33;18.50;;;;;;;7.65;55.10;95019.44;5031118;28;20028;-66
2021/12/06 11:28:50;;;;;;;27.00;16.40;;;;;;;6.22;57.92;95011.41;5033149;28;21552;-73
2021/12/06 11:31:17;;;;;;;23.98;17.02;;;;;;;6.46;58.89;95015.94;5032346;28;20022;-75
2021/12/06 11:33:55;;;;;;;25.35;18.00;;;;;;;7.00;57.68;95020.06;5032688;28;20483;-78
2021/12/06 11:36:23;;;;;;;28.40;19.45;;;;;;;8.46;53.79;95012.06;5030429;28;20017;-78
2021/12/06 11:38:49;;;;;;;26.02;18.95;;;;;;;9.29;51.62;95010.91;5033233;28;20483;-78
2021/12/06 11:41:14;;;;;;;25.00;19.08;;;;;;;8.74;51.27;95013.63;5032765;28;20031;-77
2021/12/06 11:43:41;;;;;;;27.20;19.88;;;;;;;8.84;50.91;95004.69;5031746;28;20034;-78